sensor_id;sensor_type;location;lat;lon;timestamp;P1;durP1;ratioP1;P2;durP2;ratioP2
41739;SDS011;27422;52.444;13.300;2022-11-11T00:00:22;4.30;;;1.90;;
41739;SDS011;27422;52.444;13.300;2022-11-11T00:02:47;4.55;;;1.55;;
41739;SDS011;27422;52.444;13.300;2022-11-11T00:05:14;6.35;;;2.00;;
41739;SDS011;27422;52.444;13.300;2022-11-11T00:07:42;4.40;;;1.70;;
41739;SDS011;27422;52.444;13.300;2022-11-11T00:10:08;6.47;;;2.13;;
41739;SDS011;27422;52.444;13.300;2022-11-11T00:12:34;4.70;;;1.60;;
41739;SDS011;27422;52.444;13.300;2022-11-11T00:14:59;8.13;;;2.05;;
41739;SDS011;27422;52.444;13.300;2022-11-11T00:17:25;9.02;;;2.17;;
41739;SDS011;27422;52.444;13.300;2022-11-11T00:20:09;5.63;;;1.95;;
41739;SDS011;27422;52.444;13.300;2022-11-11T00:22:54;7.20;;;1.65;;
41739;SDS011;27422;52.444;13.300;2022-11-11T00:25:38;4.97;;;1.65;;
41739;SDS011;27422;52.444;13.300;2022-11-11T00:28:03;5.88;;;2.00;;
41739;SDS011;27422;52.444;13.300;2022-11-11T00:30:29;4.85;;;2.00;;
41739;SDS011;27422;52.444;13.300;2022-11-11T00:32:54;5.07;;;2.13;;
41739;SDS011;27422;52.444;13.300;2022-11-11T00:35:20;6.47;;;2.05;;
41739;SDS011;27422;52.444;13.300;2022-11-11T00:38:10;4.70;;;1.77;;
41739;SDS011;27422;52.444;13.300;2022-11-11T00:40:56;4.75;;;1.90;;
41739;SDS011;27422;52.444;13.300;2022-11-11T00:43:21;4.13;;;2.13;;
41739;SDS011;27422;52.444;13.300;2022-11-11T00:45:46;4.93;;;2.20;;
41739;SDS011;27422;52.444;13.300;2022-11-11T00:48:12;4.80;;;1.90;;
41739;SDS011;27422;52.444;13.300;2022-11-11T00:50:56;5.45;;;1.90;;
41739;SDS011;27422;52.444;13.300;2022-11-11T00:53:26;6.13;;;1.80;;
41739;SDS011;27422;52.444;13.300;2022-11-11T00:55:53;4.55;;;1.70;;
41739;SDS011;27422;52.444;13.300;2022-11-11T00:58:19;5.45;;;2.28;;
41739;SDS011;27422;52.444;13.300;2022-11-11T01:00:46;7.03;;;2.28;;
41739;SDS011;27422;52.444;13.300;2022-11-11T01:03:14;6.05;;;2.17;;
41739;SDS011;27422;52.444;13.300;2022-11-11T01:05:39;6.50;;;2.20;;
41739;SDS011;27422;52.444;13.300;2022-11-11T01:08:05;4.80;;;1.75;;
41739;SDS011;27422;52.444;13.300;2022-11-11T01:10:30;5.63;;;1.98;;
41739;SDS011;27422;52.444;13.300;2022-11-11T01:13:05;7.32;;;2.38;;
41739;SDS011;27422;52.444;13.300;2022-11-11T01:15:38;7.60;;;2.92;;
41739;SDS011;27422;52.444;13.300;2022-11-11T01:18:04;7.50;;;2.30;;
41739;SDS011;27422;52.444;13.300;2022-11-11T01:20:30;5.47;;;2.25;;
41739;SDS011;27422;52.444;13.300;2022-11-11T01:22:55;6.30;;;2.17;;
41739;SDS011;27422;52.444;13.300;2022-11-11T01:25:23;5.30;;;2.55;;
41739;SDS011;27422;52.444;13.300;2022-11-11T01:27:49;6.07;;;2.10;;
41739;SDS011;27422;52.444;13.300;2022-11-11T01:30:17;6.50;;;2.17;;
41739;SDS011;27422;52.444;13.300;2022-11-11T01:32:42;6.95;;;2.40;;
41739;SDS011;27422;52.444;13.300;2022-11-11T01:35:08;7.80;;;2.63;;
41739;SDS011;27422;52.444;13.300;2022-11-11T01:37:33;7.25;;;2.22;;
41739;SDS011;27422;52.444;13.300;2022-11-11T01:39:59;6.85;;;2.30;;
41739;SDS011;27422;52.444;13.300;2022-11-11T01:42:25;6.80;;;2.25;;
41739;SDS011;27422;52.444;13.300;2022-11-11T01:44:50;4.70;;;2.30;;
41739;SDS011;27422;52.444;13.300;2022-11-11T01:47:16;5.30;;;2.15;;
41739;SDS011;27422;52.444;13.300;2022-11-11T01:49:53;6.50;;;2.92;;
41739;SDS011;27422;52.444;13.300;2022-11-11T01:52:21;7.85;;;2.53;;
41739;SDS011;27422;52.444;13.300;2022-11-11T01:54:59;7.65;;;2.33;;
41739;SDS011;27422;52.444;13.300;2022-11-11T01:57:31;5.10;;;2.70;;
41739;SDS011;27422;52.444;13.300;2022-11-11T02:00:06;6.35;;;2.38;;
41739;SDS011;27422;52.444;13.300;2022-11-11T02:05:10;5.88;;;2.40;;
41739;SDS011;27422;52.444;13.300;2022-11-11T02:07:59;6.93;;;2.70;;
41739;SDS011;27422;52.444;13.300;2022-11-11T02:10:27;7.00;;;2.50;;
41739;SDS011;27422;52.444;13.300;2022-11-11T02:12:54;7.88;;;2.40;;
41739;SDS011;27422;52.444;13.300;2022-11-11T02:15:38;7.38;;;2.60;;
41739;SDS011;27422;52.444;13.300;2022-11-11T02:18:04;7.78;;;2.75;;
41739;SDS011;27422;52.444;13.300;2022-11-11T02:20:31;7.30;;;2.05;;
41739;SDS011;27422;52.444;13.300;2022-11-11T02:23:05;5.03;;;2.08;;
41739;SDS011;27422;52.444;13.300;2022-11-11T02:25:33;8.50;;;2.38;;
41739;SDS011;27422;52.444;13.300;2022-11-11T02:28:02;6.38;;;2.58;;
41739;SDS011;27422;52.444;13.300;2022-11-11T02:30:29;6.88;;;2.25;;
41739;SDS011;27422;52.444;13.300;2022-11-11T02:32:55;4.43;;;1.92;;
41739;SDS011;27422;52.444;13.300;2022-11-11T02:35:42;6.55;;;2.58;;
41739;SDS011;27422;52.444;13.300;2022-11-11T02:38:10;6.15;;;2.40;;
41739;SDS011;27422;52.444;13.300;2022-11-11T02:40:40;4.68;;;2.20;;
41739;SDS011;27422;52.444;13.300;2022-11-11T02:43:25;4.22;;;2.35;;
41739;SDS011;27422;52.444;13.300;2022-11-11T02:45:51;9.98;;;2.33;;
41739;SDS011;27422;52.444;13.300;2022-11-11T02:48:20;5.72;;;2.55;;
41739;SDS011;27422;52.444;13.300;2022-11-11T02:50:45;4.82;;;2.30;;
41739;SDS011;27422;52.444;13.300;2022-11-11T02:53:11;6.55;;;2.20;;
41739;SDS011;27422;52.444;13.300;2022-11-11T02:55:36;7.38;;;2.33;;
41739;SDS011;27422;52.444;13.300;2022-11-11T02:58:02;7.03;;;2.33;;
41739;SDS011;27422;52.444;13.300;2022-11-11T03:00:27;6.65;;;2.45;;
41739;SDS011;27422;52.444;13.300;2022-11-11T03:02:53;7.10;;;2.47;;
41739;SDS011;27422;52.444;13.300;2022-11-11T03:05:18;8.70;;;2.70;;
41739;SDS011;27422;52.444;13.300;2022-11-11T03:07:43;9.48;;;3.20;;
41739;SDS011;27422;52.444;13.300;2022-11-11T03:10:09;5.30;;;2.45;;
41739;SDS011;27422;52.444;13.300;2022-11-11T03:12:34;8.43;;;2.75;;
41739;SDS011;27422;52.444;13.300;2022-11-11T03:15:00;5.47;;;2.67;;
41739;SDS011;27422;52.444;13.300;2022-11-11T03:17:25;6.40;;;2.70;;
41739;SDS011;27422;52.444;13.300;2022-11-11T03:20:10;8.57;;;2.50;;
41739;SDS011;27422;52.444;13.300;2022-11-11T03:25:29;6.75;;;2.85;;
41739;SDS011;27422;52.444;13.300;2022-11-11T03:30:37;5.95;;;2.80;;
41739;SDS011;27422;52.444;13.300;2022-11-11T03:33:06;7.32;;;2.72;;
41739;SDS011;27422;52.444;13.300;2022-11-11T03:35:32;6.35;;;2.60;;
41739;SDS011;27422;52.444;13.300;2022-11-11T03:37:57;7.13;;;2.50;;
41739;SDS011;27422;52.444;13.300;2022-11-11T03:40:42;5.75;;;2.20;;
41739;SDS011;27422;52.444;13.300;2022-11-11T03:43:08;6.15;;;2.75;;
41739;SDS011;27422;52.444;13.300;2022-11-11T03:45:34;6.57;;;2.55;;
41739;SDS011;27422;52.444;13.300;2022-11-11T03:48:00;8.50;;;2.78;;
41739;SDS011;27422;52.444;13.300;2022-11-11T03:50:25;9.05;;;2.60;;
41739;SDS011;27422;52.444;13.300;2022-11-11T03:52:51;5.32;;;2.40;;
41739;SDS011;27422;52.444;13.300;2022-11-11T03:55:16;5.18;;;2.33;;
41739;SDS011;27422;52.444;13.300;2022-11-11T03:57:42;5.78;;;2.60;;
41739;SDS011;27422;52.444;13.300;2022-11-11T04:00:09;7.82;;;2.50;;
41739;SDS011;27422;52.444;13.300;2022-11-11T04:02:36;6.30;;;2.53;;
41739;SDS011;27422;52.444;13.300;2022-11-11T04:05:20;6.63;;;2.30;;
41739;SDS011;27422;52.444;13.300;2022-11-11T04:08:04;5.97;;;2.33;;
41739;SDS011;27422;52.444;13.300;2022-11-11T04:11:11;6.95;;;2.50;;
41739;SDS011;27422;52.444;13.300;2022-11-11T04:13:39;8.40;;;2.63;;
41739;SDS011;27422;52.444;13.300;2022-11-11T04:16:25;5.28;;;2.22;;
41739;SDS011;27422;52.444;13.300;2022-11-11T04:18:50;8.40;;;2.70;;
41739;SDS011;27422;52.444;13.300;2022-11-11T04:21:35;9.50;;;2.75;;
41739;SDS011;27422;52.444;13.300;2022-11-11T04:24:10;4.38;;;2.35;;
41739;SDS011;27422;52.444;13.300;2022-11-11T04:27:08;6.00;;;2.45;;
41739;SDS011;27422;52.444;13.300;2022-11-11T04:29:37;7.57;;;2.63;;
41739;SDS011;27422;52.444;13.300;2022-11-11T04:32:07;7.30;;;2.38;;
41739;SDS011;27422;52.444;13.300;2022-11-11T04:35:02;8.13;;;2.75;;
41739;SDS011;27422;52.444;13.300;2022-11-11T04:37:47;9.35;;;2.58;;
41739;SDS011;27422;52.444;13.300;2022-11-11T04:40:16;7.00;;;2.80;;
41739;SDS011;27422;52.444;13.300;2022-11-11T04:43:00;7.75;;;2.83;;
41739;SDS011;27422;52.444;13.300;2022-11-11T04:45:25;6.82;;;2.72;;
41739;SDS011;27422;52.444;13.300;2022-11-11T04:50:23;6.22;;;2.80;;
41739;SDS011;27422;52.444;13.300;2022-11-11T04:52:50;5.47;;;2.60;;
41739;SDS011;27422;52.444;13.300;2022-11-11T04:55:15;8.18;;;2.70;;
41739;SDS011;27422;52.444;13.300;2022-11-11T04:57:59;6.30;;;2.42;;
41739;SDS011;27422;52.444;13.300;2022-11-11T05:00:25;7.07;;;2.28;;
41739;SDS011;27422;52.444;13.300;2022-11-11T05:02:54;5.88;;;2.50;;
41739;SDS011;27422;52.444;13.300;2022-11-11T05:05:40;6.35;;;2.60;;
41739;SDS011;27422;52.444;13.300;2022-11-11T05:08:35;7.88;;;2.60;;
41739;SDS011;27422;52.444;13.300;2022-11-11T05:11:41;5.85;;;2.20;;
41739;SDS011;27422;52.444;13.300;2022-11-11T05:14:05;6.35;;;2.90;;
41739;SDS011;27422;52.444;13.300;2022-11-11T05:16:56;5.47;;;2.70;;
41739;SDS011;27422;52.444;13.300;2022-11-11T05:19:40;5.30;;;2.50;;
41739;SDS011;27422;52.444;13.300;2022-11-11T05:22:36;6.25;;;2.38;;
41739;SDS011;27422;52.444;13.300;2022-11-11T05:25:03;8.43;;;2.78;;
41739;SDS011;27422;52.444;13.300;2022-11-11T05:27:48;6.03;;;3.00;;
41739;SDS011;27422;52.444;13.300;2022-11-11T05:30:13;5.18;;;2.33;;
41739;SDS011;27422;52.444;13.300;2022-11-11T05:32:40;5.38;;;2.33;;
41739;SDS011;27422;52.444;13.300;2022-11-11T05:35:06;5.38;;;2.47;;
41739;SDS011;27422;52.444;13.300;2022-11-11T05:37:32;8.15;;;2.78;;
41739;SDS011;27422;52.444;13.300;2022-11-11T05:39:57;8.52;;;2.95;;
41739;SDS011;27422;52.444;13.300;2022-11-11T05:42:23;6.88;;;2.33;;
41739;SDS011;27422;52.444;13.300;2022-11-11T05:44:48;5.47;;;2.63;;
41739;SDS011;27422;52.444;13.300;2022-11-11T05:47:17;11.27;;;2.60;;
41739;SDS011;27422;52.444;13.300;2022-11-11T05:49:42;6.65;;;3.13;;
41739;SDS011;27422;52.444;13.300;2022-11-11T05:52:08;7.63;;;2.47;;
41739;SDS011;27422;52.444;13.300;2022-11-11T05:54:38;6.07;;;2.35;;
41739;SDS011;27422;52.444;13.300;2022-11-11T05:57:04;5.05;;;2.38;;
41739;SDS011;27422;52.444;13.300;2022-11-11T05:59:29;8.95;;;2.55;;
41739;SDS011;27422;52.444;13.300;2022-11-11T06:01:55;8.45;;;3.40;;
41739;SDS011;27422;52.444;13.300;2022-11-11T06:04:20;6.03;;;2.53;;
41739;SDS011;27422;52.444;13.300;2022-11-11T06:06:45;8.23;;;2.33;;
41739;SDS011;27422;52.444;13.300;2022-11-11T06:09:31;9.48;;;2.85;;
41739;SDS011;27422;52.444;13.300;2022-11-11T06:11:56;5.20;;;2.33;;
41739;SDS011;27422;52.444;13.300;2022-11-11T06:14:23;8.30;;;2.85;;
41739;SDS011;27422;52.444;13.300;2022-11-11T06:16:48;8.27;;;2.78;;
41739;SDS011;27422;52.444;13.300;2022-11-11T06:19:15;7.65;;;2.75;;
41739;SDS011;27422;52.444;13.300;2022-11-11T06:21:41;6.88;;;2.78;;
41739;SDS011;27422;52.444;13.300;2022-11-11T06:24:21;5.45;;;2.30;;
41739;SDS011;27422;52.444;13.300;2022-11-11T06:26:47;6.95;;;2.97;;
41739;SDS011;27422;52.444;13.300;2022-11-11T06:29:12;5.05;;;2.45;;
41739;SDS011;27422;52.444;13.300;2022-11-11T06:31:38;6.50;;;2.70;;
41739;SDS011;27422;52.444;13.300;2022-11-11T06:34:03;6.97;;;2.80;;
41739;SDS011;27422;52.444;13.300;2022-11-11T06:36:28;8.80;;;2.92;;
41739;SDS011;27422;52.444;13.300;2022-11-11T06:38:57;11.25;;;2.70;;
41739;SDS011;27422;52.444;13.300;2022-11-11T06:41:22;7.70;;;2.90;;
41739;SDS011;27422;52.444;13.300;2022-11-11T06:43:49;8.88;;;3.03;;
41739;SDS011;27422;52.444;13.300;2022-11-11T06:46:22;6.20;;;2.58;;
41739;SDS011;27422;52.444;13.300;2022-11-11T06:48:49;7.68;;;2.60;;
41739;SDS011;27422;52.444;13.300;2022-11-11T06:51:15;7.82;;;2.90;;
41739;SDS011;27422;52.444;13.300;2022-11-11T06:53:41;10.27;;;3.22;;
41739;SDS011;27422;52.444;13.300;2022-11-11T06:56:06;8.68;;;3.30;;
41739;SDS011;27422;52.444;13.300;2022-11-11T06:58:33;8.35;;;3.42;;
41739;SDS011;27422;52.444;13.300;2022-11-11T07:00:58;7.38;;;2.72;;
41739;SDS011;27422;52.444;13.300;2022-11-11T07:03:27;6.75;;;3.22;;
41739;SDS011;27422;52.444;13.300;2022-11-11T07:05:53;7.53;;;3.10;;
41739;SDS011;27422;52.444;13.300;2022-11-11T07:08:19;7.80;;;2.70;;
41739;SDS011;27422;52.444;13.300;2022-11-11T07:10:45;7.45;;;2.80;;
41739;SDS011;27422;52.444;13.300;2022-11-11T07:13:12;7.45;;;2.85;;
41739;SDS011;27422;52.444;13.300;2022-11-11T07:15:39;8.20;;;2.72;;
41739;SDS011;27422;52.444;13.300;2022-11-11T07:18:05;4.95;;;2.38;;
41739;SDS011;27422;52.444;13.300;2022-11-11T07:20:31;5.32;;;2.60;;
41739;SDS011;27422;52.444;13.300;2022-11-11T07:22:56;5.85;;;2.70;;
41739;SDS011;27422;52.444;13.300;2022-11-11T07:25:22;6.05;;;3.00;;
41739;SDS011;27422;52.444;13.300;2022-11-11T07:27:47;6.10;;;2.40;;
41739;SDS011;27422;52.444;13.300;2022-11-11T07:30:13;6.38;;;2.75;;
41739;SDS011;27422;52.444;13.300;2022-11-11T07:32:44;6.05;;;2.63;;
41739;SDS011;27422;52.444;13.300;2022-11-11T07:35:11;7.03;;;2.78;;
41739;SDS011;27422;52.444;13.300;2022-11-11T07:37:38;9.95;;;3.03;;
41739;SDS011;27422;52.444;13.300;2022-11-11T07:40:04;6.75;;;2.50;;
41739;SDS011;27422;52.444;13.300;2022-11-11T07:42:30;5.10;;;2.20;;
41739;SDS011;27422;52.444;13.300;2022-11-11T07:44:55;8.02;;;2.50;;
41739;SDS011;27422;52.444;13.300;2022-11-11T07:47:20;5.78;;;2.53;;
41739;SDS011;27422;52.444;13.300;2022-11-11T07:49:46;6.72;;;2.50;;
41739;SDS011;27422;52.444;13.300;2022-11-11T07:52:11;7.13;;;2.63;;
41739;SDS011;27422;52.444;13.300;2022-11-11T07:54:36;9.40;;;2.50;;
41739;SDS011;27422;52.444;13.300;2022-11-11T07:57:02;8.98;;;2.78;;
41739;SDS011;27422;52.444;13.300;2022-11-11T07:59:27;7.75;;;2.40;;
41739;SDS011;27422;52.444;13.300;2022-11-11T08:01:53;6.80;;;2.80;;
41739;SDS011;27422;52.444;13.300;2022-11-11T08:04:18;5.63;;;2.30;;
41739;SDS011;27422;52.444;13.300;2022-11-11T08:06:43;6.55;;;2.60;;
41739;SDS011;27422;52.444;13.300;2022-11-11T08:09:09;4.60;;;2.30;;
41739;SDS011;27422;52.444;13.300;2022-11-11T08:11:34;7.85;;;2.15;;
41739;SDS011;27422;52.444;13.300;2022-11-11T08:14:18;7.68;;;2.83;;
41739;SDS011;27422;52.444;13.300;2022-11-11T08:16:43;7.85;;;2.17;;
41739;SDS011;27422;52.444;13.300;2022-11-11T08:19:09;7.70;;;2.50;;
41739;SDS011;27422;52.444;13.300;2022-11-11T08:21:34;5.93;;;2.38;;
41739;SDS011;27422;52.444;13.300;2022-11-11T08:23:59;7.15;;;2.55;;
41739;SDS011;27422;52.444;13.300;2022-11-11T08:26:25;6.70;;;2.70;;
41739;SDS011;27422;52.444;13.300;2022-11-11T08:28:51;5.95;;;2.22;;
41739;SDS011;27422;52.444;13.300;2022-11-11T08:31:17;6.47;;;3.00;;
41739;SDS011;27422;52.444;13.300;2022-11-11T08:33:42;5.25;;;2.10;;
41739;SDS011;27422;52.444;13.300;2022-11-11T08:36:08;5.15;;;2.25;;
41739;SDS011;27422;52.444;13.300;2022-11-11T08:38:35;6.28;;;2.22;;
41739;SDS011;27422;52.444;13.300;2022-11-11T08:41:02;6.50;;;2.58;;
41739;SDS011;27422;52.444;13.300;2022-11-11T08:43:56;5.60;;;2.43;;
41739;SDS011;27422;52.444;13.300;2022-11-11T08:46:24;7.50;;;2.50;;
41739;SDS011;27422;52.444;13.300;2022-11-11T08:48:49;7.00;;;2.60;;
41739;SDS011;27422;52.444;13.300;2022-11-11T08:51:15;5.30;;;2.22;;
41739;SDS011;27422;52.444;13.300;2022-11-11T08:53:40;5.85;;;1.92;;
41739;SDS011;27422;52.444;13.300;2022-11-11T08:56:06;9.27;;;2.53;;
41739;SDS011;27422;52.444;13.300;2022-11-11T08:58:32;5.70;;;2.20;;
41739;SDS011;27422;52.444;13.300;2022-11-11T09:00:58;3.63;;;1.90;;
41739;SDS011;27422;52.444;13.300;2022-11-11T09:03:25;6.68;;;2.63;;
41739;SDS011;27422;52.444;13.300;2022-11-11T09:05:51;6.10;;;2.22;;
41739;SDS011;27422;52.444;13.300;2022-11-11T09:08:16;7.05;;;2.80;;
41739;SDS011;27422;52.444;13.300;2022-11-11T09:10:42;5.60;;;2.30;;
41739;SDS011;27422;52.444;13.300;2022-11-11T09:13:07;5.03;;;2.20;;
41739;SDS011;27422;52.444;13.300;2022-11-11T09:15:33;7.22;;;2.22;;
41739;SDS011;27422;52.444;13.300;2022-11-11T09:17:59;10.15;;;2.58;;
41739;SDS011;27422;52.444;13.300;2022-11-11T09:20:25;6.40;;;2.08;;
41739;SDS011;27422;52.444;13.300;2022-11-11T09:22:51;6.45;;;2.40;;
41739;SDS011;27422;52.444;13.300;2022-11-11T09:25:17;4.78;;;1.90;;
41739;SDS011;27422;52.444;13.300;2022-11-11T09:27:43;8.27;;;2.40;;
41739;SDS011;27422;52.444;13.300;2022-11-11T09:30:09;7.38;;;2.20;;
41739;SDS011;27422;52.444;13.300;2022-11-11T09:32:35;5.13;;;2.22;;
41739;SDS011;27422;52.444;13.300;2022-11-11T09:35:01;9.32;;;2.67;;
41739;SDS011;27422;52.444;13.300;2022-11-11T09:37:27;5.97;;;2.55;;
41739;SDS011;27422;52.444;13.300;2022-11-11T09:39:53;5.13;;;2.40;;
41739;SDS011;27422;52.444;13.300;2022-11-11T09:45:04;4.68;;;1.85;;
41739;SDS011;27422;52.444;13.300;2022-11-11T09:50:23;5.18;;;1.88;;
41739;SDS011;27422;52.444;13.300;2022-11-11T09:55:46;5.78;;;1.67;;
41739;SDS011;27422;52.444;13.300;2022-11-11T09:58:16;6.28;;;1.70;;
41739;SDS011;27422;52.444;13.300;2022-11-11T10:00:56;5.88;;;1.90;;
41739;SDS011;27422;52.444;13.300;2022-11-11T10:03:24;6.82;;;1.83;;
41739;SDS011;27422;52.444;13.300;2022-11-11T10:05:58;4.57;;;2.00;;
41739;SDS011;27422;52.444;13.300;2022-11-11T10:08:27;5.90;;;1.60;;
41739;SDS011;27422;52.444;13.300;2022-11-11T10:11:11;4.72;;;1.77;;
41739;SDS011;27422;52.444;13.300;2022-11-11T10:13:41;5.68;;;1.80;;
41739;SDS011;27422;52.444;13.300;2022-11-11T10:21:44;5.00;;;2.00;;
41739;SDS011;27422;52.444;13.300;2022-11-11T10:24:14;4.32;;;1.63;;
41739;SDS011;27422;52.444;13.300;2022-11-11T10:26:43;4.90;;;1.50;;
41739;SDS011;27422;52.444;13.300;2022-11-11T10:29:12;6.55;;;1.80;;
41739;SDS011;27422;52.444;13.300;2022-11-11T10:31:41;4.75;;;1.60;;
41739;SDS011;27422;52.444;13.300;2022-11-11T10:34:13;4.10;;;1.45;;
41739;SDS011;27422;52.444;13.300;2022-11-11T10:36:45;6.75;;;1.63;;
41739;SDS011;27422;52.444;13.300;2022-11-11T10:39:15;4.68;;;1.40;;
41739;SDS011;27422;52.444;13.300;2022-11-11T10:41:46;6.05;;;2.08;;
41739;SDS011;27422;52.444;13.300;2022-11-11T10:44:47;5.20;;;1.30;;
41739;SDS011;27422;52.444;13.300;2022-11-11T10:47:18;4.32;;;1.48;;
41739;SDS011;27422;52.444;13.300;2022-11-11T10:49:49;3.25;;;1.35;;
41739;SDS011;27422;52.444;13.300;2022-11-11T10:52:38;4.13;;;1.40;;
41739;SDS011;27422;52.444;13.300;2022-11-11T10:55:08;3.70;;;1.55;;
41739;SDS011;27422;52.444;13.300;2022-11-11T10:57:52;6.25;;;1.83;;
41739;SDS011;27422;52.444;13.300;2022-11-11T11:00:21;6.25;;;1.55;;
41739;SDS011;27422;52.444;13.300;2022-11-11T11:02:50;4.57;;;1.40;;
41739;SDS011;27422;52.444;13.300;2022-11-11T11:07:55;5.15;;;1.35;;
41739;SDS011;27422;52.444;13.300;2022-11-11T11:10:29;3.92;;;1.40;;
41739;SDS011;27422;52.444;13.300;2022-11-11T11:16:03;4.55;;;1.67;;
41739;SDS011;27422;52.444;13.300;2022-11-11T11:18:31;3.00;;;1.17;;
41739;SDS011;27422;52.444;13.300;2022-11-11T11:21:00;5.22;;;1.58;;
41739;SDS011;27422;52.444;13.300;2022-11-11T11:26:05;5.15;;;1.50;;
41739;SDS011;27422;52.444;13.300;2022-11-11T11:28:31;5.05;;;1.45;;
41739;SDS011;27422;52.444;13.300;2022-11-11T11:30:59;6.45;;;1.30;;
41739;SDS011;27422;52.444;13.300;2022-11-11T11:33:26;3.97;;;1.25;;
41739;SDS011;27422;52.444;13.300;2022-11-11T11:35:51;5.07;;;1.52;;
41739;SDS011;27422;52.444;13.300;2022-11-11T11:38:17;4.20;;;1.45;;
41739;SDS011;27422;52.444;13.300;2022-11-11T11:40:46;4.20;;;1.55;;
41739;SDS011;27422;52.444;13.300;2022-11-11T11:43:33;2.80;;;1.15;;
41739;SDS011;27422;52.444;13.300;2022-11-11T11:46:03;6.47;;;1.30;;
41739;SDS011;27422;52.444;13.300;2022-11-11T11:56:36;4.15;;;1.27;;
41739;SDS011;27422;52.444;13.300;2022-11-11T12:13:15;3.92;;;1.08;;
41739;SDS011;27422;52.444;13.300;2022-11-11T12:16:32;3.25;;;1.30;;
41739;SDS011;27422;52.444;13.300;2022-11-11T12:18:53;3.10;;;0.98;;
41739;SDS011;27422;52.444;13.300;2022-11-11T12:21:25;4.35;;;1.38;;
41739;SDS011;27422;52.444;13.300;2022-11-11T12:27:09;8.02;;;1.50;;
41739;SDS011;27422;52.444;13.300;2022-11-11T12:29:47;3.08;;;1.05;;
41739;SDS011;27422;52.444;13.300;2022-11-11T12:43:05;3.08;;;1.23;;
41739;SDS011;27422;52.444;13.300;2022-11-11T12:45:46;3.38;;;1.20;;
41739;SDS011;27422;52.444;13.300;2022-11-11T12:48:28;2.70;;;1.00;;
41739;SDS011;27422;52.444;13.300;2022-11-11T12:51:33;3.28;;;1.10;;
41739;SDS011;27422;52.444;13.300;2022-11-11T12:54:53;3.05;;;1.17;;
41739;SDS011;27422;52.444;13.300;2022-11-11T12:59:52;3.38;;;1.20;;
41739;SDS011;27422;52.444;13.300;2022-11-11T13:05:21;3.90;;;1.40;;
41739;SDS011;27422;52.444;13.300;2022-11-11T13:15:51;4.03;;;1.55;;
41739;SDS011;27422;52.444;13.300;2022-11-11T13:24:00;2.75;;;1.10;;
41739;SDS011;27422;52.444;13.300;2022-11-11T13:28:55;3.28;;;1.10;;
41739;SDS011;27422;52.444;13.300;2022-11-11T13:31:44;3.47;;;1.10;;
41739;SDS011;27422;52.444;13.300;2022-11-11T13:34:13;3.35;;;1.33;;
41739;SDS011;27422;52.444;13.300;2022-11-11T13:36:43;3.67;;;1.30;;
41739;SDS011;27422;52.444;13.300;2022-11-11T13:39:27;3.17;;;1.40;;
41739;SDS011;27422;52.444;13.300;2022-11-11T13:41:54;5.43;;;1.20;;
41739;SDS011;27422;52.444;13.300;2022-11-11T13:44:47;4.30;;;1.20;;
41739;SDS011;27422;52.444;13.300;2022-11-11T13:47:16;4.55;;;1.25;;
41739;SDS011;27422;52.444;13.300;2022-11-11T13:49:57;3.20;;;1.08;;
41739;SDS011;27422;52.444;13.300;2022-11-11T13:52:29;6.55;;;1.40;;
41739;SDS011;27422;52.444;13.300;2022-11-11T13:55:07;4.35;;;1.42;;
41739;SDS011;27422;52.444;13.300;2022-11-11T13:57:41;4.15;;;1.20;;
41739;SDS011;27422;52.444;13.300;2022-11-11T14:02:42;3.50;;;1.10;;
41739;SDS011;27422;52.444;13.300;2022-11-11T14:10:08;3.35;;;1.20;;
41739;SDS011;27422;52.444;13.300;2022-11-11T14:12:36;3.58;;;1.15;;
41739;SDS011;27422;52.444;13.300;2022-11-11T14:15:03;2.95;;;1.17;;
41739;SDS011;27422;52.444;13.300;2022-11-11T14:18:01;3.40;;;1.30;;
41739;SDS011;27422;52.444;13.300;2022-11-11T14:23:46;3.50;;;1.25;;
41739;SDS011;27422;52.444;13.300;2022-11-11T14:30:57;3.63;;;1.10;;
41739;SDS011;27422;52.444;13.300;2022-11-11T14:33:55;4.22;;;1.13;;
41739;SDS011;27422;52.444;13.300;2022-11-11T14:39:29;3.47;;;1.05;;
41739;SDS011;27422;52.444;13.300;2022-11-11T14:41:56;2.90;;;1.17;;
41739;SDS011;27422;52.444;13.300;2022-11-11T14:44:42;4.13;;;1.20;;
41739;SDS011;27422;52.444;13.300;2022-11-11T14:47:16;3.20;;;1.10;;
41739;SDS011;27422;52.444;13.300;2022-11-11T14:57:48;4.00;;;1.30;;
41739;SDS011;27422;52.444;13.300;2022-11-11T15:06:12;3.15;;;1.08;;
41739;SDS011;27422;52.444;13.300;2022-11-11T15:08:59;4.20;;;1.20;;
41739;SDS011;27422;52.444;13.300;2022-11-11T15:11:44;4.18;;;1.20;;
41739;SDS011;27422;52.444;13.300;2022-11-11T15:20:16;4.20;;;1.27;;
41739;SDS011;27422;52.444;13.300;2022-11-11T15:36:44;3.88;;;1.50;;
41739;SDS011;27422;52.444;13.300;2022-11-11T15:39:21;5.75;;;1.67;;
41739;SDS011;27422;52.444;13.300;2022-11-11T15:41:49;5.30;;;1.92;;
41739;SDS011;27422;52.444;13.300;2022-11-11T15:46:46;4.07;;;1.63;;
41739;SDS011;27422;52.444;13.300;2022-11-11T15:52:27;4.47;;;1.70;;
41739;SDS011;27422;52.444;13.300;2022-11-11T15:54:56;3.90;;;1.67;;
41739;SDS011;27422;52.444;13.300;2022-11-11T15:59:48;4.95;;;1.95;;
41739;SDS011;27422;52.444;13.300;2022-11-11T16:02:18;4.57;;;1.90;;
41739;SDS011;27422;52.444;13.300;2022-11-11T16:04:49;6.25;;;1.90;;
41739;SDS011;27422;52.444;13.300;2022-11-11T16:07:43;4.68;;;1.90;;
41739;SDS011;27422;52.444;13.300;2022-11-11T16:10:31;4.93;;;2.00;;
41739;SDS011;27422;52.444;13.300;2022-11-11T16:18:23;4.38;;;1.60;;
41739;SDS011;27422;52.444;13.300;2022-11-11T16:20:51;4.30;;;1.92;;
41739;SDS011;27422;52.444;13.300;2022-11-11T16:23:21;5.05;;;2.17;;
41739;SDS011;27422;52.444;13.300;2022-11-11T16:25:48;7.65;;;2.53;;
41739;SDS011;27422;52.444;13.300;2022-11-11T16:28:17;6.72;;;2.50;;
41739;SDS011;27422;52.444;13.300;2022-11-11T16:30:42;6.20;;;2.70;;
41739;SDS011;27422;52.444;13.300;2022-11-11T16:35:52;5.70;;;2.55;;
41739;SDS011;27422;52.444;13.300;2022-11-11T16:38:30;5.68;;;2.63;;
41739;SDS011;27422;52.444;13.300;2022-11-11T16:40:58;7.32;;;2.85;;
41739;SDS011;27422;52.444;13.300;2022-11-11T16:43:25;6.22;;;2.97;;
41739;SDS011;27422;52.444;13.300;2022-11-11T16:45:54;7.30;;;2.83;;
41739;SDS011;27422;52.444;13.300;2022-11-11T16:50:56;6.90;;;3.20;;
41739;SDS011;27422;52.444;13.300;2022-11-11T16:53:25;6.80;;;2.90;;
41739;SDS011;27422;52.444;13.300;2022-11-11T16:55:57;6.60;;;2.83;;
41739;SDS011;27422;52.444;13.300;2022-11-11T16:58:23;7.00;;;2.70;;
41739;SDS011;27422;52.444;13.300;2022-11-11T17:00:49;6.65;;;2.95;;
41739;SDS011;27422;52.444;13.300;2022-11-11T17:03:23;5.68;;;2.95;;
41739;SDS011;27422;52.444;13.300;2022-11-11T17:05:53;7.10;;;2.70;;
41739;SDS011;27422;52.444;13.300;2022-11-11T17:11:08;7.60;;;2.55;;
41739;SDS011;27422;52.444;13.300;2022-11-11T17:13:35;6.22;;;2.80;;
41739;SDS011;27422;52.444;13.300;2022-11-11T17:16:03;6.07;;;2.70;;
41739;SDS011;27422;52.444;13.300;2022-11-11T17:18:35;6.72;;;3.30;;
41739;SDS011;27422;52.444;13.300;2022-11-11T17:21:02;8.20;;;3.17;;
41739;SDS011;27422;52.444;13.300;2022-11-11T17:23:27;7.57;;;3.08;;
41739;SDS011;27422;52.444;13.300;2022-11-11T17:26:02;6.60;;;2.90;;
41739;SDS011;27422;52.444;13.300;2022-11-11T17:28:31;8.07;;;3.67;;
41739;SDS011;27422;52.444;13.300;2022-11-11T17:31:10;7.97;;;3.15;;
41739;SDS011;27422;52.444;13.300;2022-11-11T17:33:36;8.57;;;3.95;;
41739;SDS011;27422;52.444;13.300;2022-11-11T17:36:02;6.50;;;3.22;;
41739;SDS011;27422;52.444;13.300;2022-11-11T17:38:28;6.60;;;3.20;;